Time;durP1;ratioP1;P1;durP2;ratioP2;P2;SDS_P1;SDS_P2;PMS_P1;PMS_P2;Temp;Humidity;BMP_temperature;BMP_pressure;BME280_temperature;BME280_humidity;BME280_pressure;Samples;Min_cycle;Max_cycle;Signal;HPM_P1;HPM_P2
2024/04/10 00:01:26;;;;;;;;;;;;;;;;;;;;;
2024/04/10 00:03:57;;;;;;;6.07;4.25;;;;;;;10.20;66.43;99452.09;5153870;27;20008;-92
2024/04/10 00:06:22;;;;;;;9.55;4.40;;;;;;;10.11;66.36;99449.91;5097508;27;20017;-92
2024/04/10 00:08:48;;;;;;;10.23;4.22;;;;;;;10.11;66.57;99454.50;5097295;27;20499;-92
2024/04/10 00:11:17;;;;;;;9.18;5.10;;;;;;;10.06;66.27;99447.19;5071239;27;19997;-92
2024/04/10 00:13:43;;;;;;;8.63;4.60;;;;;;;10.18;66.18;99463.13;5098224;27;20069;-92
2024/04/10 00:16:10;;;;;;;8.13;4.60;;;;;;;10.08;66.32;99455.00;5096277;27;20001;-93
2024/04/10 00:18:39;;;;;;;7.75;5.10;;;;;;;10.06;66.44;99449.88;5096676;27;20004;-92
2024/04/10 00:21:05;;;;;;;8.18;5.00;;;;;;;10.13;66.38;99463.09;5095654;27;20011;-92
2024/04/10 00:23:31;;;;;;;7.38;4.88;;;;;;;10.05;66.50;99469.00;5096348;27;20025;-92
2024/04/10 00:25:58;;;;;;;9.98;4.53;;;;;;;9.92;66.48;99448.78;5069841;27;20005;-93
2024/04/10 00:28:25;;;;;;;9.48;4.85;;;;;;;9.98;66.67;99460.34;5070682;27;20009;-93
2024/04/10 00:30:53;;;;;;;8.88;4.72;;;;;;;9.78;66.96;99440.34;5096554;27;19997;-91
2024/04/10 00:33:19;;;;;;;9.30;5.57;;;;;;;9.75;66.77;99448.94;5096476;27;20016;-93
2024/04/10 00:36:01;;;;;;;11.45;5.60;;;;;;;9.76;66.63;99445.19;5070649;27;20005;-91
2024/04/10 00:38:28;;;;;;;12.30;5.57;;;;;;;9.69;67.05;99447.28;5095807;27;20016;-91
2024/04/10 00:41:05;;;;;;;10.88;5.57;;;;;;;9.76;66.83;99447.06;5095371;27;20005;-93
2024/04/10 00:43:31;;;;;;;12.52;6.63;;;;;;;9.62;67.21;99435.97;5072062;27;20001;-92
2024/04/10 00:46:02;;;;;;;9.65;5.93;;;;;;;9.69;67.28;99458.88;5070334;27;20001;-90
2024/04/10 00:48:28;;;;;;;11.02;5.80;;;;;;;9.47;67.79;99447.44;5071722;27;20169;-92
2024/04/10 00:50:54;;;;;;;9.55;5.68;;;;;;;9.43;67.81;99446.34;5096686;27;20005;-92
2024/04/10 00:53:20;;;;;;;14.45;6.13;;;;;;;9.41;68.12;99445.78;5096811;27;20013;-92
2024/04/10 00:55:48;;;;;;;10.57;6.38;;;;;;;9.43;68.38;99451.72;5070670;27;20009;-92
2024/04/10 00:58:14;;;;;;;10.95;6.82;;;;;;;9.42;68.21;99456.28;5122710;27;20001;-91
2024/04/10 01:00:40;;;;;;;15.55;7.45;;;;;;;9.27;68.87;99432.78;5096437;27;20016;-91
2024/04/10 01:03:10;;;;;;;10.63;6.00;;;;;;;9.33;68.53;99439.00;5097243;27;20009;-93
2024/04/10 01:05:36;;;;;;;13.80;6.28;;;;;;;9.27;68.71;99440.03;5071686;27;19989;-93
2024/04/10 01:08:05;;;;;;;13.65;6.22;;;;;;;9.30;68.53;99445.72;5090355;28;20002;-92
2024/04/10 01:10:33;;;;;;;14.27;6.63;;;;;;;9.23;68.91;99450.47;5090742;28;20034;-90
2024/04/10 01:13:03;;;;;;;13.20;6.00;;;;;;;9.08;69.35;99436.94;5116927;28;19997;-93
2024/04/10 01:15:31;;;;;;;13.23;6.15;;;;;;;9.10;69.11;99430.25;5091636;28;20034;-93
2024/04/10 01:17:57;;;;;;;15.23;6.60;;;;;;;9.10;69.39;99440.19;5064629;28;20009;-92
2024/04/10 01:20:23;;;;;;;11.65;6.30;;;;;;;9.00;69.33;99430.16;5091964;28;20047;-91
2024/04/10 01:22:50;;;;;;;18.77;6.78;;;;;;;9.11;69.11;99441.81;5064928;28;20005;-91
2024/04/10 01:25:16;;;;;;;16.50;6.60;;;;;;;9.06;69.38;99444.44;5065237;28;20455;-92
2024/04/10 01:27:44;;;;;;;10.10;6.05;;;;;;;9.01;69.48;99447.91;5090502;28;20001;-94
2024/04/10 01:30:10;;;;;;;10.32;5.95;;;;;;;9.00;69.26;99440.91;5064600;28;20002;-92
2024/04/10 01:32:37;;;;;;;11.25;5.80;;;;;;;9.08;69.30;99464.59;5091016;28;20477;-92
2024/04/10 01:35:04;;;;;;;11.20;5.25;;;;;;;8.92;69.33;99443.25;5118616;27;20341;-93
2024/04/10 01:37:35;;;;;;;10.43;5.15;;;;;;;8.85;69.51;99433.53;5090557;28;20002;-91
2024/04/10 01:40:01;;;;;;;16.43;6.07;;;;;;;8.81;69.68;99437.78;5098262;27;20018;-92
2024/04/10 01:42:28;;;;;;;9.43;4.88;;;;;;;8.92;69.74;99451.31;5084386;27;20250;-91
2024/04/10 01:44:54;;;;;;;8.57;5.95;;;;;;;8.87;69.79;99439.47;5110819;27;20009;-92
2024/04/10 01:47:20;;;;;;;7.10;5.28;;;;;;;8.88;69.79;99440.25;5074286;28;20002;-92
2024/04/10 01:49:46;;;;;;;7.82;5.13;;;;;;;8.79;69.72;99426.50;5090156;28;20010;-92
2024/04/10 01:52:13;;;;;;;11.25;5.25;;;;;;;8.83;69.88;99440.22;5067781;27;20091;-92
2024/04/10 01:54:38;;;;;;;12.25;4.75;;;;;;;8.80;69.92;99424.63;5107029;27;20364;-92
2024/04/10 01:57:04;;;;;;;7.63;5.65;;;;;;;8.75;69.88;99417.34;5081359;27;20005;-92
2024/04/10 01:59:32;;;;;;;6.82;4.50;;;;;;;8.70;70.05;99420.78;5088678;27;20005;-92
2024/04/10 02:01:58;;;;;;;6.65;4.72;;;;;;;8.76;70.06;99428.88;5067604;28;20006;-93
2024/04/10 02:04:24;;;;;;;10.55;5.20;;;;;;;8.54;70.64;99408.28;5064651;28;20437;-92
2024/04/10 02:06:51;;;;;;;7.63;4.55;;;;;;;8.54;70.36;99416.34;5117474;28;20074;-92
2024/04/10 02:09:17;;;;;;;8.25;4.85;;;;;;;8.54;70.36;99397.56;5064045;28;20013;-91
2024/04/10 02:11:44;;;;;;;8.70;4.85;;;;;;;8.55;70.26;99406.41;5090990;28;20013;-91
2024/04/10 02:14:09;;;;;;;6.80;4.70;;;;;;;8.50;70.67;99412.53;5090693;28;19993;-93
2024/04/10 02:16:36;;;;;;;10.25;4.80;;;;;;;8.34;70.73;99405.38;5063968;28;20008;-92
2024/04/10 02:19:01;;;;;;;10.30;4.75;;;;;;;8.38;70.46;99407.28;5089991;28;19998;-92
2024/04/10 02:21:28;;;;;;;8.18;5.10;;;;;;;8.35;70.88;99409.69;5084639;27;20001;-92
2024/04/10 02:23:55;;;;;;;8.25;4.93;;;;;;;8.28;71.39;99421.44;5121929;27;20448;-92
2024/04/10 02:26:21;;;;;;;9.55;5.07;;;;;;;8.40;70.77;99425.84;5095484;27;19993;-92
2024/04/10 02:28:46;;;;;;;9.65;4.93;;;;;;;8.34;70.75;99408.06;5094909;27;19997;-92
2024/04/10 02:31:12;;;;;;;13.82;4.85;;;;;;;8.32;70.72;99412.88;5095731;27;19997;-91
2024/04/10 02:33:38;;;;;;;8.18;4.72;;;;;;;8.34;70.95;99408.88;5095690;27;20009;-92
2024/04/10 02:36:05;;;;;;;7.28;5.22;;;;;;;8.36;70.97;99411.31;5095460;27;20436;-92
2024/04/10 02:38:32;;;;;;;10.63;5.25;;;;;;;8.41;71.09;99427.50;5121724;27;19998;-91
2024/04/10 02:40:57;;;;;;;8.73;5.72;;;;;;;8.32;70.54;99411.00;5094429;27;20009;-91
2024/04/10 02:43:24;;;;;;;15.38;5.90;;;;;;;8.35;70.46;99420.44;5094715;27;20008;-92
2024/04/10 02:46:17;;;;;;;12.30;5.57;;;;;;;8.36;70.65;99419.34;5095914;27;20009;-92
2024/04/10 02:48:47;;;;;;;15.32;5.57;;;;;;;8.36;70.74;99436.25;5103755;28;19998;-91
2024/04/10 02:51:12;;;;;;;8.10;5.53;;;;;;;8.29;71.02;99433.78;5031648;28;19995;-92
2024/04/10 02:53:39;;;;;;;11.85;5.65;;;;;;;8.25;71.16;99426.47;5082716;28;19995;-92
2024/04/10 02:56:04;;;;;;;8.40;5.50;;;;;;;8.24;70.58;99431.03;5056181;28;20010;-92
2024/04/10 02:58:36;;;;;;;11.73;6.30;;;;;;;8.19;71.51;99414.88;5057219;28;20010;-92
2024/04/10 03:01:02;;;;;;;14.57;6.90;;;;;;;8.18;70.90;99424.00;5083042;28;20419;-94
2024/04/10 03:03:30;;;;;;;13.98;7.43;;;;;;;8.20;71.32;99445.22;5034250;28;20006;-93
2024/04/10 03:06:03;;;;;;;15.95;7.68;;;;;;;8.10;70.90;99427.94;5052830;28;20007;-92
2024/04/10 03:08:33;;;;;;;19.48;7.57;;;;;;;8.13;71.03;99429.28;5054048;28;20031;-91
2024/04/10 03:11:10;;;;;;;19.27;8.77;;;;;;;7.96;71.19;99412.47;5057866;28;20009;-93
2024/04/10 03:13:40;;;;;;;15.35;7.45;;;;;;;8.05;71.43;99440.47;5087138;28;20005;-92
2024/04/10 03:16:07;;;;;;;10.82;5.50;;;;;;;8.10;71.04;99443.22;5036503;28;20002;-92
2024/04/10 03:18:33;;;;;;;10.55;5.32;;;;;;;8.00;71.03;99440.41;5060442;28;20015;-92
2024/04/10 03:21:02;;;;;;;9.98;5.22;;;;;;;8.03;71.37;99451.47;5124549;27;20001;-91
2024/04/10 03:23:28;;;;;;;10.52;5.28;;;;;;;8.01;71.10;99450.91;5093439;28;20398;-93
2024/04/10 03:26:08;;;;;;;13.10;5.43;;;;;;;8.02;71.25;99451.69;5079191;27;20004;-91
2024/04/10 03:28:34;;;;;;;18.35;5.90;;;;;;;8.04;71.18;99466.47;5130158;27;20033;-91
2024/04/10 03:31:06;;;;;;;14.65;6.05;;;;;;;8.05;71.53;99460.06;5129521;27;19996;-92
2024/04/10 03:50:35;;;;;;;8.25;5.05;;;;;;;7.96;71.45;99485.66;4959074;28;20514;-92
2024/04/10 03:53:01;;;;;;;7.90;4.57;;;;;;;7.83;71.47;99475.31;4884796;28;19998;-92
2024/04/10 03:55:29;;;;;;;10.05;5.60;;;;;;;7.76;71.62;99466.63;5032176;27;20014;-91
2024/04/10 03:57:56;;;;;;;12.10;6.22;;;;;;;7.76;71.68;99470.16;5130049;27;20004;-92
2024/04/10 04:00:22;;;;;;;14.25;6.60;;;;;;;7.78;71.97;99481.44;5155871;27;20001;-91
2024/04/10 04:02:49;;;;;;;11.82;6.18;;;;;;;7.87;71.89;99497.91;5155535;27;20041;-94
2024/04/10 04:05:15;;;;;;;9.85;6.30;;;;;;;7.80;71.98;99490.03;5155753;27;20000;-90
2024/04/10 04:07:44;;;;;;;15.88;7.20;;;;;;;7.83;71.84;99497.56;5154959;27;20000;-92
2024/04/10 04:10:14;;;;;;;10.15;6.28;;;;;;;7.88;71.78;99510.22;5128912;27;20012;-93
2024/04/10 04:12:40;;;;;;;10.07;5.75;;;;;;;8.02;71.05;99522.22;5182593;27;20012;-93
2024/04/10 04:15:09;;;;;;;9.98;5.53;;;;;;;7.98;71.27;99515.72;5153626;27;19996;-92
2024/04/10 04:17:40;;;;;;;12.52;5.15;;;;;;;7.91;70.98;99499.03;5155500;27;19996;-92
2024/04/10 04:20:08;;;;;;;9.25;5.10;;;;;;;8.00;70.68;99518.16;5156651;27;20075;-90
2024/04/10 04:22:34;;;;;;;7.20;4.90;;;;;;;7.97;70.81;99513.28;5155795;27;20427;-92
2024/04/10 04:25:02;;;;;;;131.13;67.50;;;;;;;7.91;70.78;99515.13;5128048;27;20001;-92
2024/04/10 04:27:32;;;;;;;18.55;10.43;;;;;;;7.97;71.02;99522.16;5129299;27;20507;-89
2024/04/10 04:30:03;;;;;;;12.45;6.28;;;;;;;7.99;70.81;99522.72;5132460;27;20070;-91
2024/04/10 04:39:35;;;;;;;;;;;;;;;;;;;;;
2024/04/10 04:43:31;;;;;;;;;;;;;;;;;;;;;
2024/04/10 04:46:11;;;;;;;10.45;6.25;;;;;;;8.23;70.22;99522.50;5105464;27;19996;-96
2024/04/10 04:48:40;;;;;;;135.55;62.40;;;;;;;8.45;70.19;99535.94;5153853;27;20021;-93
2024/04/10 04:51:34;;;;;;;;;;;;;;;;;;;;;
2024/04/10 04:54:38;;;;;;;10.55;5.32;;;;;;;8.71;68.53;99550.44;5155493;27;20029;-93
2024/04/10 05:07:16;;;;;;;10.07;4.95;;;;;;;8.98;67.58;99533.53;5025450;28;20077;-93
2024/04/10 05:10:18;;;;;;;14.48;5.18;;;;;;;9.07;66.84;99526.66;5007006;28;20025;-94
2024/04/10 05:15:54;;;;;;;10.07;5.85;;;;;;;9.38;66.41;99554.59;4970901;28;20012;-95
2024/04/10 05:19:25;;;;;;;9.73;4.95;;;;;;;9.57;66.48;99552.34;4971019;29;20001;-95
2024/04/10 05:22:36;;;;;;;11.45;4.65;;;;;;;9.78;65.81;99555.97;4972441;28;20037;-95
2024/04/10 05:34:12;;;;;;;12.35;4.43;;;;;;;10.26;63.63;99548.72;5666194;22;20023;-95
2024/04/10 05:37:21;;;;;;;9.55;3.90;;;;;;;10.35;62.94;99529.41;5419760;22;20181;-95
2024/04/10 06:06:02;;;;;;;9.70;4.15;;;;;;;11.99;56.48;99562.75;5516033;22;20003;-95
2024/04/10 06:09:25;;;;;;;11.82;4.13;;;;;;;11.99;56.86;99543.06;5206044;27;19997;-96
2024/04/10 06:30:06;;;;;;;8.85;2.90;;;;;;;13.09;53.29;99552.88;5276319;22;20104;-95
2024/04/10 07:10:59;;;;;;;5.88;2.70;;;;;;;15.83;47.36;99542.00;5256302;27;19995;-96
2024/04/10 07:16:45;;;;;;;6.85;2.78;;;;;;;16.22;46.28;99539.94;5139957;27;20070;-94
2024/04/10 07:19:19;;;;;;;9.47;3.20;;;;;;;16.44;45.77;99547.41;5177072;27;20123;-96
2024/04/10 07:22:08;;;;;;;5.10;2.20;;;;;;;16.61;45.31;99552.22;5175773;27;20007;-96
2024/04/10 07:25:00;;;;;;;11.48;4.10;;;;;;;16.75;45.34;99551.06;5176851;27;19998;-96
2024/04/10 07:27:36;;;;;;;11.05;3.63;;;;;;;16.99;44.68;99557.41;5208001;27;20005;-96
2024/04/10 07:30:14;;;;;;;17.40;9.77;;;;;;;17.21;44.05;99559.34;5150645;27;20005;-95
2024/04/10 07:32:49;;;;;;;7.97;3.75;;;;;;;17.26;44.08;99542.88;5176568;27;19995;-96
2024/04/10 07:36:16;;;;;;;;;;;;;;;;;;;;;
2024/04/10 07:39:11;;;;;;;;;;;;;;;;;;;;;
2024/04/10 07:44:14;;;;;;;11.65;3.15;;;;;;;17.80;42.17;99540.19;4339586;22;20009;-90
2024/04/10 07:52:35;;;;;;;;;;;;;;;18.14;41.88;99548.56;5230200;27;20007;-96
2024/04/10 07:55:24;;;;;;;9.23;3.63;;;;;;;18.29;41.88;99539.16;5224407;27;19935;-96
2024/04/10 07:57:53;;;;;;;14.35;5.30;;;;;;;18.33;42.36;99520.25;5174495;27;20052;-93
2024/04/10 08:00:24;;;;;;;9.65;5.38;;;;;;;18.50;41.41;99530.41;5165817;27;19999;-92
2024/04/10 08:02:59;;;;;;;3.60;2.65;;;;;;;18.64;41.58;99524.81;5147402;27;20000;-94
2024/04/10 08:05:26;;;;;;;9.13;3.20;;;;;;;18.84;41.33;99524.22;5192729;27;19996;-94
2024/04/10 08:14:28;;;;;;;12.80;3.45;;;;;;;19.16;41.05;99517.47;5963151;22;20019;-95
2024/04/10 08:37:23;;;;;;;3.72;2.50;;;;;;;19.90;35.99;99536.63;1549681;22;20356;-93
2024/04/10 08:39:52;;;;;;;4.40;2.00;;;;;;;19.89;35.58;99535.84;5128327;27;20008;-94
2024/04/10 08:42:19;;;;;;;2.35;1.50;;;;;;;19.94;35.42;99532.13;5130239;27;20001;-92
2024/04/10 08:44:52;;;;;;;4.35;2.20;;;;;;;19.96;35.77;99518.94;5097444;27;20016;-95
2024/04/10 08:47:18;;;;;;;3.50;2.17;;;;;;;20.03;35.08;99516.50;5119405;27;20432;-93
2024/04/10 08:49:44;;;;;;;2.55;1.30;;;;;;;20.02;34.29;99509.41;5097443;27;20081;-94
2024/04/10 08:52:36;;;;;;;3.20;1.80;;;;;;;20.09;34.38;99525.34;5116526;27;20023;-94
2024/04/10 08:55:26;;;;;;;5.18;3.55;;;;;;;19.98;34.56;99503.00;4994563;28;20005;-95
2024/04/10 08:57:51;;;;;;;6.70;2.90;;;;;;;20.04;34.26;99507.16;5124345;27;20024;-95
2024/04/10 09:00:57;;;;;;;;;;;;;;;;;;;;;
2024/04/10 09:06:37;;;;;;;5.63;3.60;;;;;;;20.21;33.63;99506.28;5109809;27;20007;-96
2024/04/10 09:09:06;;;;;;;6.38;2.60;;;;;;;20.36;33.56;99511.19;5128975;27;20001;-95
2024/04/10 09:11:42;;;;;;;5.68;3.00;;;;;;;20.41;33.43;99507.47;5105923;27;20029;-96
2024/04/10 09:17:35;;;;;;;3.08;1.63;;;;;;;20.51;32.02;99500.81;5045775;27;20023;-94
2024/04/10 09:29:37;;;;;;;3.45;1.20;;;;;;;20.64;28.42;99499.78;5207398;27;20010;-93
2024/04/10 09:32:10;;;;;;;3.30;1.20;;;;;;;20.79;27.59;99506.59;5169386;27;20463;-93
2024/04/10 09:34:39;;;;;;;2.65;1.30;;;;;;;20.72;29.28;99495.38;5128107;27;20020;-93
2024/04/10 09:39:54;;;;;;;3.88;1.30;;;;;;;20.69;31.41;99499.59;5000070;28;20005;-93
2024/04/10 09:42:31;;;;;;;3.95;1.63;;;;;;;20.85;32.00;99513.47;5033835;28;20010;-92
2024/04/10 09:45:06;;;;;;;2.38;1.40;;;;;;;20.78;29.92;99505.78;5043868;28;20005;-90
2024/04/10 09:47:41;;;;;;;2.65;1.48;;;;;;;20.79;30.90;99499.19;5042487;28;20050;-94
2024/04/10 09:50:31;;;;;;;4.05;1.23;;;;;;;20.85;31.01;99490.78;5086698;27;20009;-94
2024/04/10 09:53:29;;;;;;;2.90;1.60;;;;;;;20.93;30.92;99498.91;5054775;28;20017;-95
2024/04/10 09:56:13;;;;;;;4.13;1.30;;;;;;;20.91;30.14;99500.38;5093685;27;20356;-94
2024/04/10 09:58:46;;;;;;;4.47;1.20;;;;;;;20.98;29.80;99497.94;5068137;27;20012;-92
2024/04/10 10:01:12;;;;;;;3.20;1.20;;;;;;;21.07;29.88;99500.59;5070952;27;20021;-93
2024/04/10 10:03:57;;;;;;;1.75;1.17;;;;;;;21.01;29.38;99499.97;5068457;27;20094;-92
2024/04/10 10:06:34;;;;;;;6.07;1.50;;;;;;;20.99;29.39;99494.03;5064034;28;20002;-93
2024/04/10 10:09:16;;;;;;;;;;;;;;;;;;;;;
2024/04/10 10:11:42;;;;;;;1.80;1.00;;;;;;;21.14;27.88;99481.66;5143808;27;19995;-93
2024/04/10 10:14:20;;;;;;;;;;;;;;;;;;;;;
2024/04/10 10:17:15;;;;;;;3.55;1.10;;;;;;;21.27;28.07;99477.03;5163225;27;19997;-95
2024/04/10 10:20:04;;;;;;;1.35;1.08;;;;;;;21.27;26.58;99488.81;5162483;27;19997;-96
2024/04/10 10:22:33;;;;;;;3.33;1.52;;;;;;;21.10;26.12;99483.47;5166505;27;20015;-94
2024/04/10 10:25:19;;;;;;;2.42;1.27;;;;;;;21.27;26.04;99493.47;5112554;27;19996;-96
2024/04/10 10:31:49;;;;;;;3.15;1.77;;;;;;;21.30;24.56;99488.13;5093790;28;20023;-94
2024/04/10 10:38:37;;;;;;;1.17;0.80;;;;;;;21.62;23.78;99509.59;4971160;29;20003;-96
2024/04/10 10:41:20;;;;;;;3.50;1.45;;;;;;;21.56;22.64;99496.09;4849629;29;20453;-95
2024/04/10 10:51:16;;;;;;;;;;;;;;;;;;;;;
2024/04/10 10:54:07;;;;;;;1.95;1.00;;;;;;;21.87;23.43;99488.50;4939738;29;20193;-96
2024/04/10 10:59:31;;;;;;;1.35;0.93;;;;;;;21.87;22.02;99489.31;5129145;27;19997;-94
2024/04/10 11:02:20;;;;;;;;;;;;;;;;;;;;;
2024/04/10 11:04:48;;;;;;;4.13;2.28;;;;;;;22.00;21.39;99476.41;5129354;27;20005;-96
2024/04/10 11:07:27;;;;;;;;;;;;;;;;;;;;;
2024/04/10 11:10:24;;;;;;;;;;;;;;;;;;;;;
2024/04/10 11:16:43;;;;;;;3.33;1.10;;;;;;;22.08;19.57;99489.22;5141331;27;20017;-96
2024/04/10 11:19:58;;;;;;;2.42;1.00;;;;;;;22.22;20.47;99505.28;5103439;27;20001;-95
2024/04/10 11:23:03;;;;;;;;;;;;;;;;;;;;;
2024/04/10 11:34:13;;;;;;;3.58;1.23;;;;;;;22.49;23.52;99478.34;5374025;22;20019;-96
2024/04/10 11:37:12;;;;;;;2.35;0.98;;;;;;;22.48;22.88;99468.50;5178172;27;19995;-94
2024/04/10 11:40:27;;;;;;;1.52;0.80;;;;;;;22.43;22.13;99466.00;5204002;27;20031;-96
2024/04/10 11:43:03;;;;;;;1.73;0.90;;;;;;;22.37;22.93;99468.16;5078771;27;20002;-95
2024/04/10 11:45:29;;;;;;;3.97;1.95;;;;;;;22.39;23.54;99463.94;5040586;28;20010;-94
2024/04/10 11:55:14;;;;;;;;;;;;;;;;;;;;;
2024/04/10 11:58:11;;;;;;;3.38;1.13;;;;;;;22.69;21.15;99463.66;5043887;28;19994;-93
2024/04/10 12:00:53;;;;;;;1.90;1.10;;;;;;;22.71;20.54;99455.06;5099836;28;20095;-95
2024/04/10 12:03:50;;;;;;;;;;;;;;;;;;;;;
2024/04/10 12:06:21;;;;;;;3.28;0.80;;;;;;;22.75;20.25;99472.44;5252552;27;19927;-92
2024/04/10 12:09:20;;;;;;;2.07;0.93;;;;;;;22.66;20.64;99444.31;5168954;27;20077;-95
2024/04/10 12:11:54;;;;;;;1.65;0.82;;;;;;;22.68;20.74;99453.84;5125748;27;19999;-93
2024/04/10 12:14:54;;;;;;;;;;;;;;;;;;;;;
2024/04/10 12:17:29;;;;;;;1.80;1.35;;;;;;;22.81;20.83;99465.56;5147217;27;19997;-94
2024/04/10 12:20:03;;;;;;;5.50;0.85;;;;;;;22.73;20.00;99444.53;5098273;27;20125;-93
2024/04/10 12:22:57;;;;;;;3.17;1.00;;;;;;;22.90;20.38;99457.97;5095104;28;20009;-95
2024/04/10 12:25:23;;;;;;;3.50;0.90;;;;;;;22.92;21.47;99460.38;5048242;28;20475;-93
2024/04/10 12:27:49;;;;;;;0.93;0.68;;;;;;;22.85;19.92;99447.25;5057228;28;20559;-95
2024/04/10 12:30:22;;;;;;;2.80;0.93;;;;;;;22.87;20.80;99455.13;5041837;28;20014;-95
2024/04/10 12:32:56;;;;;;;4.40;0.88;;;;;;;22.92;19.69;99449.41;5072524;28;20014;-96
2024/04/10 12:38:08;;;;;;;1.30;0.77;;;;;;;22.94;20.66;99444.34;5085320;28;20018;-93
2024/04/10 12:40:48;;;;;;;2.58;1.00;;;;;;;22.95;21.72;99452.25;5062219;28;20022;-92
2024/04/10 12:43:24;;;;;;;1.60;0.70;;;;;;;23.03;20.19;99438.72;5109409;27;20009;-94
2024/04/10 12:46:57;;;;;;;;;;;;;;;;;;;;;
2024/04/10 12:49:54;;;;;;;5.70;1.17;;;;;;;23.22;20.56;99443.56;5178674;27;20008;-96
2024/04/10 12:52:22;;;;;;;4.05;2.65;;;;;;;23.33;21.22;99453.69;5130594;27;20011;-92
2024/04/10 12:54:58;;;;;;;2.65;0.80;;;;;;;23.37;21.13;99445.56;5172612;27;20007;-92
2024/04/10 12:57:24;;;;;;;4.10;1.00;;;;;;;23.45;21.46;99447.34;5132141;27;20008;-92
2024/04/10 12:59:55;;;;;;;1.75;1.00;;;;;;;23.44;21.83;99445.72;5152430;27;20047;-90
2024/04/10 13:02:46;;;;;;;0.77;0.70;;;;;;;23.42;20.48;99445.28;5146876;27;20023;-91
2024/04/10 13:05:15;;;;;;;2.03;0.90;;;;;;;23.42;20.71;99439.00;5209609;27;20010;-91
2024/04/10 13:07:43;;;;;;;1.35;0.90;;;;;;;23.46;21.17;99443.41;5155377;27;20000;-93
2024/04/10 13:10:11;;;;;;;3.83;2.53;;;;;;;23.54;20.97;99441.66;5135518;27;20700;-92
2024/04/10 13:13:03;;;;;;;2.33;0.93;;;;;;;23.49;21.07;99439.16;5152774;27;20083;-93
2024/04/10 13:15:28;;;;;;;2.20;0.77;;;;;;;23.57;20.54;99443.69;5170849;27;20014;-91
2024/04/10 13:17:56;;;;;;;1.75;1.10;;;;;;;23.60;22.06;99424.53;5146431;27;20003;-92
2024/04/10 13:20:24;;;;;;;2.58;1.00;;;;;;;23.68;22.68;99433.78;5158990;27;20008;-91
2024/04/10 13:22:50;;;;;;;1.80;1.10;;;;;;;23.75;23.22;99436.69;5162887;27;20015;-92
2024/04/10 13:25:16;;;;;;;1.60;1.00;;;;;;;23.86;23.88;99442.47;5170496;27;20454;-90
2024/04/10 13:27:41;;;;;;;2.42;0.93;;;;;;;23.81;22.83;99426.25;5141684;27;20028;-90
2024/04/10 13:30:09;;;;;;;1.50;0.88;;;;;;;23.94;21.26;99449.75;5148638;27;20023;-88
2024/04/10 13:32:37;;;;;;;2.17;0.90;;;;;;;24.02;21.31;99452.69;5172474;27;20004;-91
2024/04/10 13:35:05;;;;;;;1.55;0.88;;;;;;;23.97;21.55;99438.03;5142962;27;20075;-92
2024/04/10 13:37:36;;;;;;;2.33;0.93;;;;;;;24.15;21.76;99443.16;5169001;27;20475;-92
2024/04/10 13:40:04;;;;;;;1.65;0.85;;;;;;;24.12;21.44;99441.13;5150321;27;20015;-91
2024/04/10 13:42:32;;;;;;;2.20;0.80;;;;;;;24.17;21.73;99438.09;5153282;27;20039;-92
2024/04/10 13:45:18;;;;;;;;;;;;;;;;;;;;;
2024/04/10 13:47:44;;;;;;;3.00;1.10;;;;;;;24.23;22.28;99431.16;5216568;27;20006;-93
2024/04/10 13:51:00;;;;;;;1.70;0.73;;;;;;;24.31;21.79;99451.38;5186806;27;20014;-96
2024/04/10 13:53:49;;;;;;;2.08;0.95;;;;;;;24.35;22.05;99441.25;5166099;27;19992;-96
2024/04/10 13:56:16;;;;;;;3.03;0.80;;;;;;;24.33;21.84;99432.56;5128680;27;19994;-93
2024/04/10 13:58:42;;;;;;;4.35;1.55;;;;;;;24.44;22.80;99446.53;5095759;28;20006;-93
2024/04/10 14:01:21;;;;;;;2.30;1.00;;;;;;;24.46;21.74;99441.47;5095931;28;20001;-93
2024/04/10 14:03:55;;;;;;;3.25;1.00;;;;;;;24.52;21.74;99438.09;5078824;27;20020;-94
2024/04/10 14:06:28;;;;;;;2.13;1.00;;;;;;;24.57;20.99;99448.03;5104772;27;20024;-93
2024/04/10 14:09:58;;;;;;;9.25;1.30;;;;;;;24.68;21.12;99446.31;5145686;27;20015;-93
2024/04/10 14:12:35;;;;;;;3.28;2.15;;;;;;;24.86;20.90;99463.22;5131888;27;19996;-93
2024/04/10 14:15:06;;;;;;;3.55;2.00;;;;;;;24.84;20.63;99437.16;5157923;27;20492;-93
2024/04/10 14:17:33;;;;;;;3.95;1.20;;;;;;;25.13;20.89;99468.84;5162179;27;20016;-95
2024/04/10 14:20:10;;;;;;;6.15;1.10;;;;;;;25.23;19.34;99453.69;5115596;27;20005;-92
2024/04/10 14:22:50;;;;;;;3.97;1.80;;;;;;;25.33;19.58;99453.91;5053027;28;20006;-95
2024/04/10 14:25:24;;;;;;;0.90;0.55;;;;;;;25.44;18.23;99451.31;5106368;28;20010;-96
2024/04/10 14:28:14;;;;;;;3.03;1.10;;;;;;;25.71;18.50;99471.53;5136399;27;20042;-95
2024/04/10 14:30:40;;;;;;;2.08;0.98;;;;;;;25.76;18.39;99462.13;5146022;27;20028;-94
2024/04/10 14:33:07;;;;;;;2.60;1.00;;;;;;;25.97;17.93;99464.47;5163454;27;20004;-96
2024/04/10 14:35:36;;;;;;;3.45;1.05;;;;;;;26.05;17.01;99457.91;5135719;27;20024;-94
2024/04/10 14:38:16;;;;;;;1.83;0.98;;;;;;;26.07;17.33;99455.56;5163012;27;20012;-95
2024/04/10 14:40:43;;;;;;;2.97;1.10;;;;;;;26.19;17.16;99455.34;5163526;27;19996;-96
2024/04/10 14:43:30;;;;;;;2.75;1.20;;;;;;;26.42;16.55;99484.88;5147022;27;20025;-95
2024/04/10 14:45:58;;;;;;;3.13;0.77;;;;;;;26.54;16.67;99458.97;5132688;27;20005;-95
2024/04/10 14:48:36;;;;;;;;;;;;;;;;;;;;;
2024/04/10 14:51:06;;;;;;;1.50;0.82;;;;;;;27.19;15.88;99469.69;5155090;27;20377;-95
2024/04/10 14:54:00;;;;;;;3.63;0.80;;;;;;;27.51;15.12;99491.34;5130858;27;20008;-95
2024/04/10 14:56:39;;;;;;;;;;;;;;;;;;;;;
2024/04/10 14:59:16;;;;;;;1.88;0.77;;;;;;;27.74;14.64;99469.03;5159206;27;20020;-96
2024/04/10 15:01:55;;;;;;;2.17;1.10;;;;;;;27.69;15.12;99476.91;5179806;27;20012;-95
2024/04/10 15:04:22;;;;;;;1.98;0.80;;;;;;;27.14;14.68;99466.44;5153272;27;20002;-93
2024/04/10 15:06:48;;;;;;;2.88;0.90;;;;;;;26.86;15.55;99480.75;5127325;27;20002;-92
2024/04/10 15:09:16;;;;;;;1.58;0.88;;;;;;;26.52;15.06;99478.69;5133252;27;20019;-93
2024/04/10 15:12:00;;;;;;;4.13;1.23;;;;;;;26.12;15.29;99476.53;5132275;27;20013;-94
2024/04/10 15:14:47;;;;;;;3.55;1.00;;;;;;;25.91;15.79;99490.78;5136811;27;20000;-93
2024/04/10 15:17:35;;;;;;;;;;;;;;;;;;;;;
2024/04/10 15:20:18;;;;;;;1.85;0.75;;;;;;;25.16;16.49;99482.69;5062834;27;19997;-96
2024/04/10 15:28:19;;;;;;;2.60;0.80;;;;;;;24.36;17.96;99481.34;5261615;27;19991;-95
2024/04/10 15:30:58;;;;;;;4.25;0.80;;;;;;;24.18;17.51;99498.25;5235279;27;20003;-94
2024/04/10 15:33:45;;;;;;;2.25;1.00;;;;;;;23.88;17.93;99500.66;5202068;27;19999;-96
2024/04/10 15:36:16;;;;;;;2.95;0.98;;;;;;;23.75;18.10;99501.88;5204948;27;20074;-95
2024/04/10 15:39:37;;;;;;;;;;;;;;;;;;;;;
2024/04/10 15:42:03;;;;;;;2.80;0.90;;;;;;;23.46;18.57;99509.38;5251223;27;19999;-91
2024/04/10 15:45:03;;;;;;;1.40;0.85;;;;;;;23.32;18.89;99507.03;5200409;27;19995;-94
2024/04/10 15:48:07;;;;;;;1.70;1.00;;;;;;;23.18;19.19;99506.66;5131417;27;20010;-95
2024/04/10 15:50:39;;;;;;;2.67;1.02;;;;;;;23.20;19.33;99521.66;5075087;27;20002;-95
2024/04/10 15:53:18;;;;;;;;;;;;;;;;;;;;;
2024/04/10 15:58:54;;;;;;;3.67;1.27;;;;;;;22.86;20.82;99505.69;5082106;28;20005;-93
2024/04/10 16:01:20;;;;;;;4.35;1.30;;;;;;;22.76;21.28;99506.97;5093988;28;20008;-95
2024/04/10 16:03:48;;;;;;;4.13;1.20;;;;;;;22.68;20.80;99507.91;5096116;28;20010;-95
2024/04/10 16:06:25;;;;;;;2.63;1.27;;;;;;;22.58;21.42;99514.69;5067414;28;20017;-95
2024/04/10 16:08:53;;;;;;;4.55;1.50;;;;;;;22.48;21.82;99504.97;5068130;28;20009;-94
2024/04/10 16:11:22;;;;;;;3.47;1.35;;;;;;;22.40;22.13;99501.22;5095629;28;19994;-94
2024/04/10 16:14:01;;;;;;;3.55;1.20;;;;;;;22.45;22.74;99524.88;5074246;28;19997;-95
2024/04/10 16:16:31;;;;;;;2.78;1.30;;;;;;;22.21;22.90;99509.19;5071117;28;20034;-96
2024/04/10 16:19:33;;;;;;;1.65;1.17;;;;;;;22.12;22.84;99512.06;5156342;27;20002;-95
2024/04/10 16:21:59;;;;;;;2.15;1.33;;;;;;;22.10;23.59;99519.84;5256046;27;20060;-93
2024/04/10 16:24:34;;;;;;;2.15;1.00;;;;;;;22.06;23.40;99524.41;5200426;27;20007;-94
2024/04/10 16:26:59;;;;;;;4.70;1.52;;;;;;;21.99;23.52;99533.16;5201070;27;20055;-95
2024/04/10 16:29:29;;;;;;;1.58;1.10;;;;;;;21.89;24.35;99533.59;5201376;27;20015;-96
2024/04/10 16:32:19;;;;;;;;;;;;;;;;;;;;;
2024/04/10 16:34:51;;;;;;;3.95;1.52;;;;;;;21.80;25.56;99552.09;5228617;27;20018;-93
2024/04/10 16:37:19;;;;;;;2.95;1.45;;;;;;;21.59;24.98;99538.47;5197837;27;20015;-94
2024/04/10 16:39:51;;;;;;;4.13;1.33;;;;;;;21.59;24.58;99565.88;5226640;27;19999;-96
2024/04/10 16:42:42;;;;;;;7.63;2.45;;;;;;;21.46;25.85;99536.81;5207061;27;20043;-96